sensor_id;sensor_type;location;lat;lon;timestamp;pressure;altitude;pressure_sealevel;temperature;humidity
62051;BME280;48008;51.204;6.766;2023-02-20T00:00:24;102184.41;;;5.19;100.00
62051;BME280;48008;51.204;6.766;2023-02-20T00:02:51;102175.53;;;5.22;100.00
62051;BME280;48008;51.204;6.766;2023-02-20T00:05:19;102177.13;;;5.25;100.00
62051;BME280;48008;51.204;6.766;2023-02-20T00:07:45;102171.16;;;5.21;99.83
62051;BME280;48008;51.204;6.766;2023-02-20T00:10:13;102164.81;;;5.25;99.85
62051;BME280;48008;51.204;6.766;2023-02-20T00:12:40;102168.03;;;5.14;99.99
62051;BME280;48008;51.204;6.766;2023-02-20T00:15:07;102164.63;;;5.12;100.00
62051;BME280;48008;51.204;6.766;2023-02-20T00:17:35;102165.56;;;5.11;100.00
62051;BME280;48008;51.204;6.766;2023-02-20T00:20:02;102161.41;;;5.07;100.00
62051;BME280;48008;51.204;6.766;2023-02-20T00:22:29;102165.72;;;5.08;100.00
62051;BME280;48008;51.204;6.766;2023-02-20T00:24:55;102158.44;;;5.13;100.00
62051;BME280;48008;51.204;6.766;2023-02-20T00:27:22;102159.22;;;5.15;100.00
62051;BME280;48008;51.204;6.766;2023-02-20T00:29:49;102163.44;;;5.18;100.00
62051;BME280;48008;51.204;6.766;2023-02-20T00:32:16;102152.16;;;5.16;100.00
62051;BME280;48008;51.204;6.766;2023-02-20T00:34:42;102156.13;;;5.07;100.00
62051;BME280;48008;51.204;6.766;2023-02-20T00:37:09;102158.75;;;5.07;100.00
62051;BME280;48008;51.204;6.766;2023-02-20T00:39:36;102149.38;;;5.19;100.00
62051;BME280;48008;51.204;6.766;2023-02-20T00:42:04;102142.22;;;5.21;100.00
62051;BME280;48008;51.204;6.766;2023-02-20T00:44:31;102148.34;;;5.22;100.00
62051;BME280;48008;51.204;6.766;2023-02-20T00:46:58;102142.91;;;5.25;100.00
62051;BME280;48008;51.204;6.766;2023-02-20T00:49:24;102150.88;;;5.23;100.00
62051;BME280;48008;51.204;6.766;2023-02-20T00:51:51;102142.22;;;5.21;100.00
62051;BME280;48008;51.204;6.766;2023-02-20T00:54:18;102147.41;;;5.23;100.00
62051;BME280;48008;51.204;6.766;2023-02-20T00:56:45;102142.00;;;5.26;100.00
62051;BME280;48008;51.204;6.766;2023-02-20T00:59:12;102128.91;;;5.24;100.00
62051;BME280;48008;51.204;6.766;2023-02-20T01:01:39;102110.59;;;5.23;100.00
62051;BME280;48008;51.204;6.766;2023-02-20T01:04:06;102113.13;;;5.24;100.00
62051;BME280;48008;51.204;6.766;2023-02-20T01:06:33;102105.47;;;5.19;100.00
62051;BME280;48008;51.204;6.766;2023-02-20T01:09:00;102104.56;;;5.21;100.00
62051;BME280;48008;51.204;6.766;2023-02-20T01:11:26;102107.44;;;5.32;100.00
62051;BME280;48008;51.204;6.766;2023-02-20T01:13:53;102099.94;;;5.40;100.00
62051;BME280;48008;51.204;6.766;2023-02-20T01:16:19;102101.41;;;5.46;100.00
62051;BME280;48008;51.204;6.766;2023-02-20T01:18:49;102085.94;;;5.39;100.00
62051;BME280;48008;51.204;6.766;2023-02-20T01:21:16;102090.59;;;5.50;100.00
62051;BME280;48008;51.204;6.766;2023-02-20T01:23:44;102084.56;;;5.48;100.00
62051;BME280;48008;51.204;6.766;2023-02-20T01:26:11;102080.81;;;5.52;100.00
62051;BME280;48008;51.204;6.766;2023-02-20T01:28:42;102070.28;;;5.52;100.00
62051;BME280;48008;51.204;6.766;2023-02-20T01:31:09;102070.03;;;5.57;100.00
62051;BME280;48008;51.204;6.766;2023-02-20T01:33:40;102071.91;;;5.55;100.00
62051;BME280;48008;51.204;6.766;2023-02-20T01:36:09;102069.38;;;5.53;100.00
62051;BME280;48008;51.204;6.766;2023-02-20T01:38:39;102066.28;;;5.61;100.00
62051;BME280;48008;51.204;6.766;2023-02-20T01:41:09;102054.03;;;5.60;100.00
62051;BME280;48008;51.204;6.766;2023-02-20T01:43:36;102062.47;;;5.51;100.00
62051;BME280;48008;51.204;6.766;2023-02-20T01:46:34;102063.81;;;5.58;100.00
62051;BME280;48008;51.204;6.766;2023-02-20T01:49:11;102073.59;;;5.56;100.00
62051;BME280;48008;51.204;6.766;2023-02-20T01:51:46;102075.88;;;5.62;100.00
62051;BME280;48008;51.204;6.766;2023-02-20T01:54:17;102080.19;;;5.63;100.00
62051;BME280;48008;51.204;6.766;2023-02-20T01:56:47;102071.16;;;5.67;100.00
62051;BME280;48008;51.204;6.766;2023-02-20T01:59:15;102062.25;;;5.70;100.00
62051;BME280;48008;51.204;6.766;2023-02-20T02:01:43;102055.13;;;5.72;100.00
62051;BME280;48008;51.204;6.766;2023-02-20T02:04:11;102055.22;;;5.70;100.00
62051;BME280;48008;51.204;6.766;2023-02-20T02:06:41;102055.78;;;5.75;100.00
62051;BME280;48008;51.204;6.766;2023-02-20T02:09:18;102055.69;;;5.77;100.00
62051;BME280;48008;51.204;6.766;2023-02-20T02:11:49;102049.84;;;5.72;100.00
62051;BME280;48008;51.204;6.766;2023-02-20T02:14:16;102041.88;;;5.73;100.00
62051;BME280;48008;51.204;6.766;2023-02-20T02:17:06;102038.28;;;5.74;100.00
62051;BME280;48008;51.204;6.766;2023-02-20T02:25:54;102023.00;;;5.51;100.00
62051;BME280;48008;51.204;6.766;2023-02-20T02:35:09;102004.53;;;5.36;100.00
62051;BME280;48008;51.204;6.766;2023-02-20T02:40:53;101997.41;;;5.38;100.00
62051;BME280;48008;51.204;6.766;2023-02-20T02:43:31;101999.09;;;5.39;100.00
62051;BME280;48008;51.204;6.766;2023-02-20T02:46:08;101995.63;;;5.39;100.00
62051;BME280;48008;51.204;6.766;2023-02-20T02:48:43;101994.50;;;5.43;100.00
62051;BME280;48008;51.204;6.766;2023-02-20T02:51:17;101991.38;;;5.36;100.00
62051;BME280;48008;51.204;6.766;2023-02-20T02:54:07;101993.25;;;5.34;100.00
62051;BME280;48008;51.204;6.766;2023-02-20T02:56:36;101995.03;;;5.34;100.00
62051;BME280;48008;51.204;6.766;2023-02-20T02:59:04;101995.97;;;5.33;100.00
62051;BME280;48008;51.204;6.766;2023-02-20T03:01:36;101993.78;;;5.25;100.00
62051;BME280;48008;51.204;6.766;2023-02-20T03:04:06;101995.75;;;5.22;100.00
62051;BME280;48008;51.204;6.766;2023-02-20T03:06:41;101994.66;;;5.26;100.00
62051;BME280;48008;51.204;6.766;2023-02-20T03:09:15;102001.13;;;5.34;100.00
62051;BME280;48008;51.204;6.766;2023-02-20T03:11:43;101995.03;;;5.34;100.00
62051;BME280;48008;51.204;6.766;2023-02-20T03:14:15;101991.47;;;5.35;100.00
62051;BME280;48008;51.204;6.766;2023-02-20T03:17:22;101998.13;;;5.26;100.00
62051;BME280;48008;51.204;6.766;2023-02-20T03:19:58;101985.53;;;5.31;100.00
62051;BME280;48008;51.204;6.766;2023-02-20T03:22:31;101986.31;;;5.33;100.00
62051;BME280;48008;51.204;6.766;2023-02-20T03:25:09;101982.63;;;5.36;100.00
62051;BME280;48008;51.204;6.766;2023-02-20T03:27:59;101974.16;;;5.31;100.00
62051;BME280;48008;51.204;6.766;2023-02-20T03:30:40;101966.25;;;5.31;100.00
62051;BME280;48008;51.204;6.766;2023-02-20T03:33:12;101958.56;;;5.28;100.00
62051;BME280;48008;51.204;6.766;2023-02-20T03:36:03;101953.38;;;5.26;100.00
62051;BME280;48008;51.204;6.766;2023-02-20T03:38:59;101952.97;;;5.18;100.00
62051;BME280;48008;51.204;6.766;2023-02-20T03:41:48;101961.31;;;5.10;100.00
62051;BME280;48008;51.204;6.766;2023-02-20T03:44:42;101964.88;;;5.09;100.00
62051;BME280;48008;51.204;6.766;2023-02-20T03:47:13;101964.03;;;5.09;100.00
62051;BME280;48008;51.204;6.766;2023-02-20T03:49:43;101957.84;;;5.10;100.00
62051;BME280;48008;51.204;6.766;2023-02-20T03:52:16;101951.97;;;5.21;100.00
62051;BME280;48008;51.204;6.766;2023-02-20T03:54:43;101952.31;;;5.14;100.00
62051;BME280;48008;51.204;6.766;2023-02-20T03:59:50;101953.25;;;5.13;100.00
62051;BME280;48008;51.204;6.766;2023-02-20T04:02:22;101951.56;;;5.12;100.00
62051;BME280;48008;51.204;6.766;2023-02-20T04:04:53;101953.50;;;5.09;100.00
62051;BME280;48008;51.204;6.766;2023-02-20T04:07:26;101952.94;;;5.04;100.00
62051;BME280;48008;51.204;6.766;2023-02-20T04:09:56;101957.44;;;5.02;100.00
62051;BME280;48008;51.204;6.766;2023-02-20T04:12:29;101962.88;;;4.98;100.00
62051;BME280;48008;51.204;6.766;2023-02-20T04:14:58;101962.00;;;4.98;100.00
62051;BME280;48008;51.204;6.766;2023-02-20T04:17:30;101952.69;;;4.92;100.00
62051;BME280;48008;51.204;6.766;2023-02-20T04:19:59;101951.84;;;4.92;100.00
62051;BME280;48008;51.204;6.766;2023-02-20T04:22:30;101950.56;;;4.99;100.00
62051;BME280;48008;51.204;6.766;2023-02-20T04:25:00;101950.91;;;4.93;100.00
62051;BME280;48008;51.204;6.766;2023-02-20T04:27:31;101949.91;;;4.95;100.00
62051;BME280;48008;51.204;6.766;2023-02-20T04:29:59;101951.09;;;4.90;100.00
62051;BME280;48008;51.204;6.766;2023-02-20T04:32:26;101936.25;;;4.89;100.00
62051;BME280;48008;51.204;6.766;2023-02-20T04:34:52;101943.13;;;4.91;100.00
62051;BME280;48008;51.204;6.766;2023-02-20T04:37:19;101945.16;;;4.86;100.00
62051;BME280;48008;51.204;6.766;2023-02-20T04:39:51;101944.22;;;4.87;100.00
62051;BME280;48008;51.204;6.766;2023-02-20T04:42:18;101939.72;;;4.89;100.00
62051;BME280;48008;51.204;6.766;2023-02-20T04:44:45;101940.97;;;4.98;100.00
62051;BME280;48008;51.204;6.766;2023-02-20T04:47:16;101941.84;;;4.98;100.00
62051;BME280;48008;51.204;6.766;2023-02-20T04:49:43;101936.47;;;5.00;100.00
62051;BME280;48008;51.204;6.766;2023-02-20T04:52:13;101944.28;;;5.02;100.00
62051;BME280;48008;51.204;6.766;2023-02-20T04:54:40;101941.31;;;5.08;100.00
62051;BME280;48008;51.204;6.766;2023-02-20T04:57:09;101936.06;;;5.08;100.00
62051;BME280;48008;51.204;6.766;2023-02-20T04:59:36;101939.34;;;5.11;100.00
62051;BME280;48008;51.204;6.766;2023-02-20T05:02:03;101934.44;;;5.05;100.00
62051;BME280;48008;51.204;6.766;2023-02-20T05:04:30;101933.72;;;5.17;100.00
62051;BME280;48008;51.204;6.766;2023-02-20T05:06:56;101931.63;;;5.08;100.00
62051;BME280;48008;51.204;6.766;2023-02-20T05:09:23;101936.59;;;5.13;100.00
62051;BME280;48008;51.204;6.766;2023-02-20T05:11:50;101922.78;;;5.09;100.00
62051;BME280;48008;51.204;6.766;2023-02-20T05:14:18;101925.13;;;4.99;100.00
62051;BME280;48008;51.204;6.766;2023-02-20T05:16:46;101920.31;;;4.92;100.00
62051;BME280;48008;51.204;6.766;2023-02-20T05:19:13;101920.97;;;4.95;100.00
62051;BME280;48008;51.204;6.766;2023-02-20T05:21:42;101933.69;;;5.03;100.00
62051;BME280;48008;51.204;6.766;2023-02-20T05:24:30;101933.59;;;5.05;100.00
62051;BME280;48008;51.204;6.766;2023-02-20T05:26:57;101929.25;;;5.04;100.00
62051;BME280;48008;51.204;6.766;2023-02-20T05:29:24;101934.72;;;5.00;100.00
62051;BME280;48008;51.204;6.766;2023-02-20T05:31:51;101927.06;;;4.96;100.00
62051;BME280;48008;51.204;6.766;2023-02-20T05:34:18;101938.94;;;5.03;100.00
62051;BME280;48008;51.204;6.766;2023-02-20T05:36:47;101938.56;;;5.09;100.00
62051;BME280;48008;51.204;6.766;2023-02-20T05:39:13;101939.59;;;5.07;100.00
62051;BME280;48008;51.204;6.766;2023-02-20T05:41:40;101931.63;;;5.08;100.00
62051;BME280;48008;51.204;6.766;2023-02-20T05:44:07;101935.00;;;5.10;100.00
62051;BME280;48008;51.204;6.766;2023-02-20T05:46:38;101926.75;;;5.16;100.00
62051;BME280;48008;51.204;6.766;2023-02-20T05:49:07;101924.78;;;5.20;100.00
62051;BME280;48008;51.204;6.766;2023-02-20T05:51:33;101927.53;;;5.18;100.00
62051;BME280;48008;51.204;6.766;2023-02-20T05:54:00;101927.25;;;5.23;100.00
62051;BME280;48008;51.204;6.766;2023-02-20T05:56:27;101923.28;;;5.16;100.00
62051;BME280;48008;51.204;6.766;2023-02-20T05:58:55;101918.84;;;5.16;100.00
62051;BME280;48008;51.204;6.766;2023-02-20T06:01:26;101917.75;;;5.21;100.00
62051;BME280;48008;51.204;6.766;2023-02-20T06:03:53;101920.19;;;5.24;100.00
62051;BME280;48008;51.204;6.766;2023-02-20T06:06:20;101925.56;;;5.22;100.00
62051;BME280;48008;51.204;6.766;2023-02-20T06:08:47;101922.16;;;5.20;100.00
62051;BME280;48008;51.204;6.766;2023-02-20T06:11:14;101916.63;;;5.25;100.00
62051;BME280;48008;51.204;6.766;2023-02-20T06:13:43;101919.84;;;5.30;100.00
62051;BME280;48008;51.204;6.766;2023-02-20T06:16:11;101913.19;;;5.38;100.00
62051;BME280;48008;51.204;6.766;2023-02-20T06:18:40;101917.97;;;5.32;100.00
62051;BME280;48008;51.204;6.766;2023-02-20T06:21:08;101930.06;;;5.20;100.00
62051;BME280;48008;51.204;6.766;2023-02-20T06:23:37;101929.16;;;5.35;100.00
62051;BME280;48008;51.204;6.766;2023-02-20T06:26:05;101923.22;;;5.32;100.00
62051;BME280;48008;51.204;6.766;2023-02-20T06:28:32;101922.31;;;5.47;100.00
62051;BME280;48008;51.204;6.766;2023-02-20T06:30:59;101924.19;;;5.45;100.00
62051;BME280;48008;51.204;6.766;2023-02-20T06:33:28;101918.16;;;5.29;100.00
62051;BME280;48008;51.204;6.766;2023-02-20T06:35:55;101939.50;;;5.38;100.00
62051;BME280;48008;51.204;6.766;2023-02-20T06:38:23;101945.09;;;5.18;100.00
62051;BME280;48008;51.204;6.766;2023-02-20T06:40:50;101954.34;;;5.39;100.00
62051;BME280;48008;51.204;6.766;2023-02-20T06:43:17;101949.25;;;5.36;100.00
62051;BME280;48008;51.204;6.766;2023-02-20T06:45:44;101964.38;;;5.33;100.00
62051;BME280;48008;51.204;6.766;2023-02-20T06:48:11;101959.66;;;5.24;100.00
62051;BME280;48008;51.204;6.766;2023-02-20T06:50:40;101956.69;;;5.30;100.00
62051;BME280;48008;51.204;6.766;2023-02-20T06:53:07;101959.56;;;5.25;100.00
62051;BME280;48008;51.204;6.766;2023-02-20T06:55:34;101954.84;;;5.16;100.00
62051;BME280;48008;51.204;6.766;2023-02-20T06:58:00;101961.16;;;5.13;100.00
62051;BME280;48008;51.204;6.766;2023-02-20T07:00:27;101957.75;;;5.11;100.00
62051;BME280;48008;51.204;6.766;2023-02-20T07:02:54;101970.25;;;5.08;100.00
62051;BME280;48008;51.204;6.766;2023-02-20T07:05:20;101956.31;;;5.06;100.00
62051;BME280;48008;51.204;6.766;2023-02-20T07:07:47;101954.09;;;5.14;100.00
62051;BME280;48008;51.204;6.766;2023-02-20T07:10:14;101954.56;;;5.06;100.00
62051;BME280;48008;51.204;6.766;2023-02-20T07:12:41;101963.13;;;5.10;100.00
62051;BME280;48008;51.204;6.766;2023-02-20T07:15:10;101982.38;;;5.10;100.00
62051;BME280;48008;51.204;6.766;2023-02-20T07:17:37;101967.34;;;4.96;100.00
62051;BME280;48008;51.204;6.766;2023-02-20T07:20:04;101978.47;;;5.02;100.00
62051;BME280;48008;51.204;6.766;2023-02-20T07:22:31;101978.13;;;5.08;100.00
62051;BME280;48008;51.204;6.766;2023-02-20T07:24:58;101971.97;;;5.23;100.00
62051;BME280;48008;51.204;6.766;2023-02-20T07:27:24;101973.94;;;5.19;100.00
62051;BME280;48008;51.204;6.766;2023-02-20T07:29:51;101979.38;;;5.16;100.00
62051;BME280;48008;51.204;6.766;2023-02-20T07:32:18;101969.97;;;5.12;100.00
62051;BME280;48008;51.204;6.766;2023-02-20T07:34:46;101964.88;;;5.09;100.00
62051;BME280;48008;51.204;6.766;2023-02-20T07:37:28;101967.41;;;5.11;100.00
62051;BME280;48008;51.204;6.766;2023-02-20T07:39:54;101963.50;;;5.18;100.00
62051;BME280;48008;51.204;6.766;2023-02-20T07:42:21;101969.34;;;5.23;100.00
62051;BME280;48008;51.204;6.766;2023-02-20T07:44:50;101972.50;;;5.14;100.00
62051;BME280;48008;51.204;6.766;2023-02-20T07:47:16;101963.50;;;5.18;100.00
62051;BME280;48008;51.204;6.766;2023-02-20T07:49:43;101964.00;;;5.25;100.00
62051;BME280;48008;51.204;6.766;2023-02-20T07:52:10;101966.34;;;5.29;100.00
62051;BME280;48008;51.204;6.766;2023-02-20T07:54:37;101970.44;;;5.35;99.44
62051;BME280;48008;51.204;6.766;2023-02-20T07:57:03;101963.47;;;5.34;99.31
62051;BME280;48008;51.204;6.766;2023-02-20T07:59:30;101956.69;;;5.30;99.82
62051;BME280;48008;51.204;6.766;2023-02-20T08:01:57;101953.47;;;5.25;100.00
62051;BME280;48008;51.204;6.766;2023-02-20T08:04:23;101965.72;;;5.40;99.17
62051;BME280;48008;51.204;6.766;2023-02-20T08:06:50;101972.94;;;5.36;99.39
62051;BME280;48008;51.204;6.766;2023-02-20T08:09:17;101969.97;;;5.43;99.53
62051;BME280;48008;51.204;6.766;2023-02-20T08:11:43;101964.97;;;5.38;99.33
62051;BME280;48008;51.204;6.766;2023-02-20T08:14:12;101974.41;;;5.56;98.72
62051;BME280;48008;51.204;6.766;2023-02-20T08:16:39;101981.09;;;5.48;98.45
62051;BME280;48008;51.204;6.766;2023-02-20T08:19:06;101968.75;;;5.48;98.41
62051;BME280;48008;51.204;6.766;2023-02-20T08:21:32;101978.63;;;5.45;97.63
62051;BME280;48008;51.204;6.766;2023-02-20T08:23:59;101965.03;;;5.67;98.47
62051;BME280;48008;51.204;6.766;2023-02-20T08:26:27;101968.78;;;5.63;97.96
62051;BME280;48008;51.204;6.766;2023-02-20T08:28:54;101966.53;;;5.71;97.00
62051;BME280;48008;51.204;6.766;2023-02-20T08:31:21;101965.78;;;5.69;97.30
62051;BME280;48008;51.204;6.766;2023-02-20T08:33:58;101963.22;;;5.67;96.80
62051;BME280;48008;51.204;6.766;2023-02-20T08:36:24;101968.66;;;5.50;97.69
62051;BME280;48008;51.204;6.766;2023-02-20T08:38:51;101964.41;;;5.47;98.61
62051;BME280;48008;51.204;6.766;2023-02-20T08:41:18;101969.13;;;5.56;97.51
62051;BME280;48008;51.204;6.766;2023-02-20T08:43:46;101967.53;;;5.54;97.48
62051;BME280;48008;51.204;6.766;2023-02-20T08:46:12;101958.97;;;5.50;98.25
62051;BME280;48008;51.204;6.766;2023-02-20T08:48:40;101963.13;;;5.54;98.17
62051;BME280;48008;51.204;6.766;2023-02-20T08:51:07;101953.19;;;5.74;98.01
62051;BME280;48008;51.204;6.766;2023-02-20T08:53:36;101953.81;;;5.63;97.67
62051;BME280;48008;51.204;6.766;2023-02-20T08:56:05;101948.75;;;5.74;97.29
62051;BME280;48008;51.204;6.766;2023-02-20T08:58:32;101956.88;;;5.86;96.97
62051;BME280;48008;51.204;6.766;2023-02-20T09:00:59;101952.53;;;5.85;96.66
62051;BME280;48008;51.204;6.766;2023-02-20T09:03:25;101965.69;;;5.85;96.56
62051;BME280;48008;51.204;6.766;2023-02-20T09:05:52;101947.16;;;5.72;97.22
62051;BME280;48008;51.204;6.766;2023-02-20T09:08:19;101952.63;;;5.83;97.33
62051;BME280;48008;51.204;6.766;2023-02-20T09:10:46;101948.75;;;5.89;97.55
62051;BME280;48008;51.204;6.766;2023-02-20T09:13:12;101954.44;;;5.97;96.53
62051;BME280;48008;51.204;6.766;2023-02-20T09:15:39;101949.72;;;5.88;97.29
62051;BME280;48008;51.204;6.766;2023-02-20T09:18:07;101955.13;;;6.01;96.68
62051;BME280;48008;51.204;6.766;2023-02-20T09:20:37;101955.38;;;5.96;97.64
62051;BME280;48008;51.204;6.766;2023-02-20T09:23:04;101968.56;;;6.10;96.44
62051;BME280;48008;51.204;6.766;2023-02-20T09:25:32;101956.88;;;6.00;97.14
62051;BME280;48008;51.204;6.766;2023-02-20T09:27:59;101948.97;;;6.00;97.63
62051;BME280;48008;51.204;6.766;2023-02-20T09:30:26;101938.44;;;6.00;97.62
62051;BME280;48008;51.204;6.766;2023-02-20T09:32:53;101949.28;;;6.10;96.96
62051;BME280;48008;51.204;6.766;2023-02-20T09:35:24;101955.75;;;6.19;96.64
62051;BME280;48008;51.204;6.766;2023-02-20T09:37:52;101985.84;;;6.14;96.17
62051;BME280;48008;51.204;6.766;2023-02-20T09:40:21;101960.75;;;6.09;96.47
62051;BME280;48008;51.204;6.766;2023-02-20T09:45:35;101974.56;;;6.12;96.89
62051;BME280;48008;51.204;6.766;2023-02-20T09:48:27;101973.25;;;6.20;96.87
62051;BME280;48008;51.204;6.766;2023-02-20T09:50:58;101972.66;;;6.29;97.04
62051;BME280;48008;51.204;6.766;2023-02-20T09:53:51;101979.25;;;6.36;96.55
62051;BME280;48008;51.204;6.766;2023-02-20T09:56:22;101984.25;;;6.41;95.79
62051;BME280;48008;51.204;6.766;2023-02-20T09:59:24;101985.47;;;6.49;95.68
62051;BME280;48008;51.204;6.766;2023-02-20T10:01:42;101976.91;;;6.31;95.62
62051;BME280;48008;51.204;6.766;2023-02-20T10:04:20;101963.16;;;6.41;96.38
62051;BME280;48008;51.204;6.766;2023-02-20T10:06:50;101972.28;;;6.49;96.37
62051;BME280;48008;51.204;6.766;2023-02-20T10:09:18;101983.28;;;6.42;95.77
62051;BME280;48008;51.204;6.766;2023-02-20T10:15:00;101967.47;;;6.42;96.64
62051;BME280;48008;51.204;6.766;2023-02-20T10:17:43;101971.69;;;6.59;95.28
62051;BME280;48008;51.204;6.766;2023-02-20T10:20:18;101964.53;;;6.61;95.31
62051;BME280;48008;51.204;6.766;2023-02-20T10:23:02;101955.22;;;6.55;95.12
62051;BME280;48008;51.204;6.766;2023-02-20T10:25:34;101953.59;;;6.52;95.83
62051;BME280;48008;51.204;6.766;2023-02-20T10:28:09;101958.19;;;6.63;94.97
62051;BME280;48008;51.204;6.766;2023-02-20T10:30:59;101966.13;;;6.49;95.61
62051;BME280;48008;51.204;6.766;2023-02-20T10:33:35;101948.91;;;6.58;94.96
62051;BME280;48008;51.204;6.766;2023-02-20T10:36:17;101952.59;;;6.55;95.55
62051;BME280;48008;51.204;6.766;2023-02-20T10:38:50;101952.00;;;6.64;95.20
62051;BME280;48008;51.204;6.766;2023-02-20T10:42:07;101954.47;;;6.80;94.77
62051;BME280;48008;51.204;6.766;2023-02-20T10:44:17;101960.28;;;6.85;94.05
62051;BME280;48008;51.204;6.766;2023-02-20T10:46:52;101959.50;;;6.70;94.71
62051;BME280;48008;51.204;6.766;2023-02-20T10:49:32;101943.59;;;6.72;94.93
62051;BME280;48008;51.204;6.766;2023-02-20T10:52:04;101940.63;;;6.77;94.92
62051;BME280;48008;51.204;6.766;2023-02-20T10:54:37;101950.06;;;6.81;94.43
62051;BME280;48008;51.204;6.766;2023-02-20T10:57:30;101943.22;;;6.91;94.65
62051;BME280;48008;51.204;6.766;2023-02-20T11:00:07;101945.34;;;6.86;94.78
62051;BME280;48008;51.204;6.766;2023-02-20T11:02:40;101945.19;;;6.87;94.59
62051;BME280;48008;51.204;6.766;2023-02-20T11:05:12;101933.91;;;6.85;95.15
62051;BME280;48008;51.204;6.766;2023-02-20T11:07:39;101949.31;;;6.79;94.95
62051;BME280;48008;51.204;6.766;2023-02-20T11:10:06;101935.91;;;6.82;94.43
62051;BME280;48008;51.204;6.766;2023-02-20T11:12:36;101924.44;;;6.96;94.52
62051;BME280;48008;51.204;6.766;2023-02-20T11:15:07;101916.13;;;7.02;93.67
62051;BME280;48008;51.204;6.766;2023-02-20T11:17:37;101911.72;;;7.02;93.63
62051;BME280;48008;51.204;6.766;2023-02-20T11:20:05;101896.63;;;7.17;93.13
62051;BME280;48008;51.204;6.766;2023-02-20T11:22:47;101897.28;;;7.34;92.35
62051;BME280;48008;51.204;6.766;2023-02-20T11:25:19;101896.56;;;7.44;92.93
62051;BME280;48008;51.204;6.766;2023-02-20T11:27:49;101899.59;;;7.38;92.29
62051;BME280;48008;51.204;6.766;2023-02-20T11:30:35;101892.41;;;7.27;92.56
62051;BME280;48008;51.204;6.766;2023-02-20T11:33:21;101907.00;;;7.33;93.44
62051;BME280;48008;51.204;6.766;2023-02-20T11:35:50;101906.16;;;7.33;93.26
62051;BME280;48008;51.204;6.766;2023-02-20T11:38:26;101912.78;;;7.25;92.60
62051;BME280;48008;51.204;6.766;2023-02-20T11:43:41;101898.28;;;6.92;94.63
62051;BME280;48008;51.204;6.766;2023-02-20T11:46:25;101904.53;;;7.04;94.89
62051;BME280;48008;51.204;6.766;2023-02-20T11:48:57;101895.97;;;7.01;94.90
62051;BME280;48008;51.204;6.766;2023-02-20T11:51:41;101880.69;;;7.06;94.81
62051;BME280;48008;51.204;6.766;2023-02-20T11:54:14;101879.34;;;7.13;94.41
62051;BME280;48008;51.204;6.766;2023-02-20T11:57:03;101885.00;;;7.07;94.50
62051;BME280;48008;51.204;6.766;2023-02-20T11:59:40;101879.59;;;6.96;95.17
62051;BME280;48008;51.204;6.766;2023-02-20T12:02:15;101884.91;;;7.08;95.19
62051;BME280;48008;51.204;6.766;2023-02-20T12:05:09;101886.91;;;7.18;93.98
62051;BME280;48008;51.204;6.766;2023-02-20T12:07:39;101880.03;;;6.89;94.94
62051;BME280;48008;51.204;6.766;2023-02-20T12:13:03;101864.31;;;7.01;95.48
62051;BME280;48008;51.204;6.766;2023-02-20T12:15:31;101873.34;;;6.84;95.38
62051;BME280;48008;51.204;6.766;2023-02-20T12:21:15;101855.88;;;6.96;95.39
62051;BME280;48008;51.204;6.766;2023-02-20T12:23:53;101860.69;;;6.89;95.00
62051;BME280;48008;51.204;6.766;2023-02-20T12:29:40;101855.50;;;6.87;96.71
62051;BME280;48008;51.204;6.766;2023-02-20T12:32:21;101867.47;;;6.93;96.61
62051;BME280;48008;51.204;6.766;2023-02-20T12:41:22;101857.75;;;6.81;97.16
62051;BME280;48008;51.204;6.766;2023-02-20T12:47:26;101872.84;;;6.91;96.82
62051;BME280;48008;51.204;6.766;2023-02-20T12:53:18;101862.47;;;6.76;97.73
62051;BME280;48008;51.204;6.766;2023-02-20T12:59:08;101859.97;;;6.87;98.02
62051;BME280;48008;51.204;6.766;2023-02-20T13:01:40;101852.56;;;6.79;98.50
62051;BME280;48008;51.204;6.766;2023-02-20T13:04:32;101847.94;;;6.83;98.91
62051;BME280;48008;51.204;6.766;2023-02-20T13:07:12;101823.47;;;6.94;98.88
62051;BME280;48008;51.204;6.766;2023-02-20T13:12:30;101810.69;;;7.00;98.06
62051;BME280;48008;51.204;6.766;2023-02-20T13:15:26;101821.69;;;7.07;98.53
62051;BME280;48008;51.204;6.766;2023-02-20T13:18:07;101813.03;;;7.05;98.85
62051;BME280;48008;51.204;6.766;2023-02-20T13:20:48;101798.38;;;7.14;98.76
62051;BME280;48008;51.204;6.766;2023-02-20T13:25:52;101777.25;;;7.14;98.93
62051;BME280;48008;51.204;6.766;2023-02-20T13:31:17;101776.19;;;7.16;98.73
62051;BME280;48008;51.204;6.766;2023-02-20T13:33:49;101768.91;;;7.20;98.42
62051;BME280;48008;51.204;6.766;2023-02-20T13:36:35;101751.38;;;7.32;98.64
62051;BME280;48008;51.204;6.766;2023-02-20T13:49:55;101725.19;;;7.28;97.96
62051;BME280;48008;51.204;6.766;2023-02-20T13:52:40;101716.59;;;7.38;98.04
62051;BME280;48008;51.204;6.766;2023-02-20T13:55:15;101720.09;;;7.38;97.60
62051;BME280;48008;51.204;6.766;2023-02-20T13:58:23;101718.53;;;7.23;99.04
62051;BME280;48008;51.204;6.766;2023-02-20T14:00:53;101713.69;;;7.29;98.85
62051;BME280;48008;51.204;6.766;2023-02-20T14:03:26;101725.47;;;7.37;98.80
62051;BME280;48008;51.204;6.766;2023-02-20T14:06:14;101716.59;;;7.38;98.51
62051;BME280;48008;51.204;6.766;2023-02-20T14:08:43;101701.75;;;7.24;99.35
62051;BME280;48008;51.204;6.766;2023-02-20T14:11:21;101709.34;;;7.28;99.32
62051;BME280;48008;51.204;6.766;2023-02-20T14:13:52;101713.28;;;7.23;99.73
62051;BME280;48008;51.204;6.766;2023-02-20T14:16:30;101696.47;;;7.24;100.00
62051;BME280;48008;51.204;6.766;2023-02-20T14:18:58;101683.47;;;7.34;99.63
62051;BME280;48008;51.204;6.766;2023-02-20T14:21:26;101699.59;;;7.42;99.33
62051;BME280;48008;51.204;6.766;2023-02-20T14:23:56;101707.78;;;7.26;99.45
62051;BME280;48008;51.204;6.766;2023-02-20T14:26:25;101710.63;;;7.23;100.00
62051;BME280;48008;51.204;6.766;2023-02-20T14:28:55;101711.81;;;7.19;100.00